createdAt,value
2018-06-12T00:02:13.511Z,100249.05
2018-06-12T00:04:41.828Z,100243.23
2018-06-12T00:07:10.269Z,100239.63
2018-06-12T00:09:38.621Z,100243.55
2018-06-12T00:12:07.070Z,100249.17
2018-06-12T00:14:35.617Z,100241.92
2018-06-12T00:17:04.260Z,100239.63
2018-06-12T00:19:32.585Z,100247.73
2018-06-12T00:22:00.906Z,100240.11
2018-06-12T00:24:29.232Z,100248.64
2018-06-12T00:26:57.553Z,100250.80
2018-06-12T00:29:25.931Z,100250.14
2018-06-12T00:31:54.250Z,100260.86
2018-06-12T00:34:22.612Z,100253.72
2018-06-12T00:36:50.932Z,100257.16
2018-06-12T00:39:19.293Z,100255.95
2018-06-12T00:41:47.654Z,100260.56
2018-06-12T00:44:16.918Z,100261.70
2018-06-12T00:46:45.274Z,100270.64
2018-06-12T00:49:13.641Z,100261.05
2018-06-12T00:51:42.026Z,100266.94
2018-06-12T00:54:10.392Z,100269.50
2018-06-12T00:56:49.997Z,100267.67
2018-06-12T00:59:18.319Z,100268.56
2018-06-12T01:01:46.624Z,100270.70
2018-06-12T01:04:15.591Z,100267.84
2018-06-12T01:06:44.562Z,100266.98
2018-06-12T01:09:12.929Z,100266.32
2018-06-12T01:11:42.156Z,100270.87
2018-06-12T01:14:11.557Z,100266.88
2018-06-12T01:16:39.913Z,100266.51
2018-06-12T01:19:08.226Z,100261.86
2018-06-12T01:21:36.572Z,100269.77
2018-06-12T01:24:05.037Z,100273.16
2018-06-12T01:26:34.266Z,100263.89
2018-06-12T01:29:03.465Z,100264.02
2018-06-12T01:31:31.799Z,100264.05
2018-06-12T01:34:00.105Z,100264.75
2018-06-12T01:36:28.412Z,100270.34
2018-06-12T01:38:56.752Z,100276.20
2018-06-12T01:41:25.078Z,100275.31
2018-06-12T01:43:53.421Z,100273.63
2018-06-12T01:46:22.296Z,100273.14
2018-06-12T01:48:50.640Z,100271.66
2018-06-12T01:51:20.038Z,100281.50
2018-06-12T01:53:49.316Z,100278.20
2018-06-12T01:56:17.719Z,100284.25
2018-06-12T01:58:46.065Z,100286.66
2018-06-12T02:01:15.248Z,100293.80
2018-06-12T02:03:43.601Z,100288.44
2018-06-12T02:06:14.117Z,100296.50
2018-06-12T02:08:42.570Z,100295.31
2018-06-12T02:11:11.742Z,100302.89
2018-06-12T02:13:40.065Z,100311.05
2018-06-12T02:16:08.365Z,100304.34
2018-06-12T02:18:36.664Z,100303.25
2018-06-12T02:21:05.080Z,100298.33
2018-06-12T02:23:33.396Z,100305.29
2018-06-12T02:26:01.711Z,100298.19
2018-06-12T02:28:30.068Z,100301.87
2018-06-12T02:30:58.386Z,100292.88
2018-06-12T02:33:26.712Z,100290.56
2018-06-12T02:35:55.077Z,100301.20
2018-06-12T02:38:23.446Z,100303.92
2018-06-12T02:40:51.756Z,100305.39
2018-06-12T02:43:20.110Z,100303.52
2018-06-12T02:45:48.429Z,100300.57
2018-06-12T02:48:16.737Z,100301.69
2018-06-12T02:50:46.081Z,100301.84
2018-06-12T02:53:15.372Z,100306.14
2018-06-12T02:55:43.789Z,100301.84
2018-06-12T02:58:12.126Z,100305.78
2018-06-12T03:00:40.436Z,100306.14
2018-06-12T03:03:08.753Z,100296.66
2018-06-12T03:05:37.065Z,100294.69
2018-06-12T03:08:05.571Z,100299.06
2018-06-12T03:10:33.928Z,100296.82
2018-06-12T03:13:02.255Z,100299.00
2018-06-12T03:15:30.689Z,100296.92
2018-06-12T03:17:59.114Z,100304.76
2018-06-12T03:20:38.654Z,100307.59
2018-06-12T03:23:07.029Z,100310.34
2018-06-12T03:25:35.333Z,100307.52
2018-06-12T03:28:04.126Z,100305.95
2018-06-12T03:30:32.452Z,100303.47
2018-06-12T03:33:01.675Z,100303.67
2018-06-12T03:35:30.891Z,100304.34
2018-06-12T03:37:59.314Z,100306.77
2018-06-12T03:40:27.746Z,100313.77
2018-06-12T03:42:56.068Z,100308.50
2018-06-12T03:45:24.558Z,100309.49
2018-06-12T03:47:53.745Z,100307.50
2018-06-12T03:50:22.113Z,100307.61
2018-06-12T03:52:51.228Z,100312.75
2018-06-12T03:55:20.677Z,100308.39
2018-06-12T03:57:49.925Z,100313.58
2018-06-12T04:00:19.166Z,100310.00
2018-06-12T04:02:48.477Z,100321.23
2018-06-12T04:05:17.709Z,100320.57
2018-06-12T04:07:47.158Z,100323.28
2018-06-12T04:10:16.355Z,100325.78
2018-06-12T04:12:45.630Z,100320.19
2018-06-12T04:15:14.976Z,100324.64
2018-06-12T04:17:44.344Z,100315.20
2018-06-12T04:20:12.653Z,100318.08
2018-06-12T04:22:41.020Z,100325.66
2018-06-12T04:25:09.371Z,100324.98
2018-06-12T04:27:37.916Z,100327.53
2018-06-12T04:30:06.245Z,100329.90
2018-06-12T04:32:34.593Z,100334.89
2018-06-12T04:35:03.011Z,100334.39
2018-06-12T04:37:31.328Z,100336.67
2018-06-12T04:39:59.680Z,100336.01
2018-06-12T04:42:27.996Z,100339.66
2018-06-12T04:44:56.425Z,100341.85
2018-06-12T04:47:24.948Z,100344.66
2018-06-12T04:49:53.287Z,100346.94
2018-06-12T04:52:21.646Z,100348.70
2018-06-12T04:54:49.965Z,100350.64
2018-06-12T04:57:18.331Z,100354.83
2018-06-12T04:59:46.737Z,100357.58
2018-06-12T05:02:15.168Z,100360.97
2018-06-12T05:04:43.533Z,100357.77
2018-06-12T05:07:12.906Z,100360.25
2018-06-12T05:09:41.226Z,100365.88
2018-06-12T05:12:10.589Z,100365.87
2018-06-12T05:14:38.909Z,100365.03
2018-06-12T05:17:07.342Z,100365.88
2018-06-12T05:19:35.777Z,100360.42
2018-06-12T05:22:04.121Z,100363.59
2018-06-12T05:24:32.477Z,100368.03
2018-06-12T05:27:00.789Z,100364.64
2018-06-12T05:29:30.028Z,100365.63
2018-06-12T05:31:58.344Z,100369.09
2018-06-12T05:34:26.687Z,100370.23
2018-06-12T05:36:55.005Z,100375.84
2018-06-12T05:39:23.388Z,100378.59
2018-06-12T05:41:51.699Z,100377.03
2018-06-12T05:44:20.020Z,100382.48
2018-06-12T05:46:48.441Z,100384.53
2018-06-12T05:49:16.741Z,100389.58
2018-06-12T05:51:45.941Z,100389.90
2018-06-12T05:54:14.568Z,100398.83
2018-06-12T05:56:42.888Z,100401.69
2018-06-12T05:59:11.303Z,100406.43
2018-06-12T06:01:39.633Z,100402.02
2018-06-12T06:04:07.960Z,100398.68
2018-06-12T06:06:36.417Z,100404.64
2018-06-12T06:09:07.912Z,100394.52
2018-06-12T06:11:36.701Z,100400.52
2018-06-12T06:14:06.076Z,100402.99
2018-06-12T06:16:34.452Z,100409.77
2018-06-12T06:19:02.776Z,100409.20
2018-06-12T06:21:31.097Z,100411.55
2018-06-12T06:23:59.589Z,100425.46
2018-06-12T06:26:27.908Z,100425.83
2018-06-12T06:28:56.286Z,100420.89
2018-06-12T06:31:25.496Z,100420.20
2018-06-12T06:33:53.826Z,100420.20
2018-06-12T06:36:23.106Z,100420.86
2018-06-12T06:38:51.419Z,100428.10
2018-06-12T06:41:19.737Z,100426.61
2018-06-12T06:43:48.148Z,100431.38
2018-06-12T06:46:17.125Z,100426.08
2018-06-12T06:48:45.457Z,100429.38
2018-06-12T06:51:13.788Z,100436.50
2018-06-12T06:53:43.096Z,100438.56
2018-06-12T06:56:11.397Z,100440.26
2018-06-12T06:58:39.703Z,100444.51
2018-06-12T07:01:08.025Z,100442.28
2018-06-12T07:03:36.346Z,100438.28
2018-06-12T07:06:04.776Z,100431.66
2018-06-12T07:08:33.101Z,100434.80
2018-06-12T07:11:01.509Z,100434.79
2018-06-12T07:13:30.789Z,100432.61
2018-06-12T07:16:00.118Z,100426.08
2018-06-12T07:18:29.317Z,100430.69
2018-06-12T07:21:00.925Z,100426.56
2018-06-12T07:23:30.121Z,100428.59
2018-06-12T07:25:59.797Z,100427.39
2018-06-12T07:28:28.120Z,100429.42
2018-06-12T07:30:56.531Z,100429.48
2018-06-12T07:33:25.237Z,100426.84
2018-06-12T07:35:54.628Z,100432.48
2018-06-12T07:38:25.410Z,100425.70
2018-06-12T07:40:53.778Z,100432.80
2018-06-12T07:43:22.975Z,100433.29
2018-06-12T07:45:51.353Z,100435.48
2018-06-12T07:48:20.560Z,100441.92
2018-06-12T07:50:48.885Z,100434.83
2018-06-12T07:53:18.231Z,100435.47
2018-06-12T07:55:46.607Z,100434.13
2018-06-12T07:58:16.012Z,100436.12
2018-06-12T08:00:44.332Z,100444.08
2018-06-12T08:03:13.729Z,100434.97
2018-06-12T08:05:43.093Z,100442.03
2018-06-12T08:08:11.475Z,100442.38
2018-06-12T08:10:39.916Z,100437.09
2018-06-12T08:13:09.177Z,100437.08
2018-06-12T08:15:38.404Z,100441.16
2018-06-12T08:18:06.903Z,100439.30
2018-06-12T08:20:35.218Z,100435.28
2018-06-12T08:23:03.838Z,100438.28
2018-06-12T08:25:32.158Z,100433.39
2018-06-12T08:28:01.344Z,100432.34
2018-06-12T08:30:35.214Z,100439.00
2018-06-12T08:33:03.723Z,100437.21
2018-06-12T08:35:32.234Z,100446.58
2018-06-12T08:38:00.621Z,100451.73
2018-06-12T08:40:28.928Z,100454.41
2018-06-12T08:42:57.308Z,100452.27
2018-06-12T08:45:25.645Z,100450.63
2018-06-12T08:47:54.029Z,100462.36
2018-06-12T08:50:22.348Z,100455.09
2018-06-12T08:52:50.676Z,100451.62
2018-06-12T08:55:19.851Z,100457.62
2018-06-12T08:57:49.109Z,100455.62
2018-06-12T09:00:17.424Z,100461.23
2018-06-12T09:02:46.714Z,100458.05
2018-06-12T09:05:15.049Z,100452.27
2018-06-12T09:07:43.365Z,100446.25
2018-06-12T09:10:11.673Z,100447.86
2018-06-12T09:12:39.992Z,100450.00
2018-06-12T09:15:08.316Z,100442.15
2018-06-12T09:17:36.665Z,100450.08
2018-06-12T09:20:05.181Z,100449.48
2018-06-12T09:22:33.492Z,100445.84
2018-06-12T09:25:01.897Z,100442.00
2018-06-12T09:27:34.412Z,100446.84
2018-06-12T09:30:02.759Z,100450.92
2018-06-12T09:32:31.118Z,100445.24
2018-06-12T09:34:59.442Z,100436.02
2018-06-12T09:37:27.820Z,100447.09
2018-06-12T09:39:56.223Z,100447.48
2018-06-12T09:42:24.523Z,100442.77
2018-06-12T09:44:52.840Z,100445.83
2018-06-12T09:47:22.231Z,100443.23
2018-06-12T09:49:50.653Z,100435.49
2018-06-12T09:52:18.965Z,100439.94
2018-06-12T09:54:47.322Z,100436.44
2018-06-12T09:57:15.626Z,100438.94
2018-06-12T09:59:44.850Z,100437.34
2018-06-12T10:02:13.177Z,100435.52
2018-06-12T10:04:41.592Z,100445.45
2018-06-12T10:07:10.908Z,100450.08
2018-06-12T10:09:39.277Z,100455.48
2018-06-12T10:12:08.539Z,100456.07
2018-06-12T10:14:37.784Z,100448.50
2018-06-12T10:17:06.983Z,100443.56
2018-06-12T10:19:35.285Z,100443.94
2018-06-12T10:22:03.616Z,100447.22
2018-06-12T10:24:32.945Z,100453.42
2018-06-12T10:27:02.245Z,100451.11
2018-06-12T10:29:30.553Z,100451.08
2018-06-12T10:31:59.833Z,100445.78
2018-06-12T10:34:29.081Z,100449.52
2018-06-12T10:36:58.392Z,100456.64
2018-06-12T10:39:27.833Z,100449.77
2018-06-12T10:41:57.025Z,100448.64
2018-06-12T10:44:25.352Z,100458.69
2018-06-12T10:46:54.548Z,100459.42
2018-06-12T10:49:23.865Z,100452.44
2018-06-12T10:51:53.082Z,100452.98
2018-06-12T10:54:21.676Z,100457.97
2018-06-12T10:56:50.969Z,100455.92
2018-06-12T10:59:19.365Z,100448.02
2018-06-12T11:01:48.708Z,100452.08
2018-06-12T11:04:17.069Z,100447.95
2018-06-12T11:06:46.326Z,100452.86
2018-06-12T11:09:14.696Z,100451.44
2018-06-12T11:11:43.921Z,100442.78
2018-06-12T11:14:12.233Z,100432.41
2018-06-12T11:16:40.555Z,100441.48
2018-06-12T11:19:08.901Z,100430.98
2018-06-12T11:21:37.317Z,100435.97
2018-06-12T11:24:06.601Z,100431.58
2018-06-12T11:26:34.952Z,100430.12
2018-06-12T11:29:04.295Z,100436.67
2018-06-12T11:31:32.714Z,100433.11
2018-06-12T11:34:01.901Z,100435.01
2018-06-12T11:36:30.249Z,100430.45
2018-06-12T11:38:59.203Z,100430.04
2018-06-12T11:41:27.570Z,100420.94
2018-06-12T11:43:55.889Z,100426.25
2018-06-12T11:46:24.216Z,100429.52
2018-06-12T11:48:52.583Z,100422.53
2018-06-12T11:51:20.992Z,100423.30
2018-06-12T11:53:49.348Z,100422.64
2018-06-12T11:56:17.661Z,100415.23
2018-06-12T11:58:46.895Z,100420.83
2018-06-12T12:01:15.316Z,100416.69
2018-06-12T12:03:44.654Z,100418.47
2018-06-12T12:06:13.988Z,100428.30
2018-06-12T12:08:42.404Z,100416.09
2018-06-12T12:11:11.766Z,100413.91
2018-06-12T12:13:41.181Z,100406.81
2018-06-12T12:16:10.455Z,100409.95
2018-06-12T12:18:38.769Z,100413.05
2018-06-12T12:21:08.134Z,100399.56
2018-06-12T12:23:37.336Z,100407.06
2018-06-12T12:26:05.777Z,100405.08
2018-06-12T12:28:34.124Z,100402.63
2018-06-12T12:31:02.503Z,100407.70
2018-06-12T12:33:31.745Z,100405.12
2018-06-12T12:36:00.069Z,100398.80
2018-06-12T12:38:28.465Z,100396.69
2018-06-12T12:40:57.649Z,100396.15
2018-06-12T12:43:26.040Z,100405.29
2018-06-12T12:45:54.599Z,100399.63
2018-06-12T12:48:23.015Z,100399.95
2018-06-12T12:50:51.421Z,100408.30
2018-06-12T12:53:19.772Z,100394.12
2018-06-12T12:55:49.001Z,100412.96
2018-06-12T12:58:17.336Z,100410.44
2018-06-12T13:00:45.717Z,100405.70
2018-06-12T13:03:14.126Z,100403.94
2018-06-12T13:05:42.436Z,100405.25
2018-06-12T13:08:10.760Z,100409.91
2018-06-12T13:10:40.090Z,100407.64
2018-06-12T13:13:08.436Z,100414.23
2018-06-12T13:15:36.772Z,100402.63
2018-06-12T13:18:06.254Z,100391.64
2018-06-12T13:20:34.565Z,100398.38
2018-06-12T13:23:04.040Z,100400.48
2018-06-12T13:25:32.417Z,100404.20
2018-06-12T13:28:00.764Z,100398.57
2018-06-12T13:30:29.116Z,100395.70
2018-06-12T13:32:58.321Z,100398.02
2018-06-12T13:35:26.716Z,100404.14
2018-06-12T13:37:55.029Z,100402.61
2018-06-12T13:40:23.345Z,100398.17
2018-06-12T13:42:51.650Z,100398.89
2018-06-12T13:45:19.989Z,100390.08
2018-06-12T13:47:48.333Z,100384.56
2018-06-12T13:50:16.642Z,100389.69
2018-06-12T13:52:44.989Z,100394.89
2018-06-12T13:55:13.301Z,100386.48
2018-06-12T13:57:41.613Z,100393.08
2018-06-12T14:00:09.925Z,100390.53
2018-06-12T14:02:38.268Z,100395.64
2018-06-12T14:05:06.582Z,100387.44
2018-06-12T14:07:35.824Z,100382.44
2018-06-12T14:10:04.161Z,100382.42
2018-06-12T14:12:33.404Z,100385.84
2018-06-12T14:15:01.718Z,100385.27
2018-06-12T14:17:30.938Z,100393.99
2018-06-12T14:19:59.251Z,100386.20
2018-06-12T14:22:27.570Z,100378.17
2018-06-12T14:24:56.793Z,100384.30
2018-06-12T14:27:26.093Z,100375.92
2018-06-12T14:29:55.411Z,100376.82
2018-06-12T14:32:24.736Z,100376.20
2018-06-12T14:34:53.969Z,100370.94
2018-06-12T14:37:23.106Z,100365.72
2018-06-12T14:39:51.602Z,100361.36
2018-06-12T14:42:19.940Z,100359.80
2018-06-12T14:44:49.159Z,100359.75
2018-06-12T14:47:18.657Z,100362.09
2018-06-12T14:49:48.022Z,100362.75
2018-06-12T14:52:16.339Z,100351.70
2018-06-12T14:54:45.555Z,100346.09
2018-06-12T14:57:14.944Z,100351.30
2018-06-12T14:59:44.284Z,100350.92
2018-06-12T15:02:12.624Z,100346.94
2018-06-12T15:04:42.012Z,100339.14
2018-06-12T15:07:10.337Z,100345.70
2018-06-12T15:09:39.592Z,100344.00
2018-06-12T15:12:08.848Z,100330.91
2018-06-12T15:14:37.173Z,100333.00
2018-06-12T15:17:05.529Z,100325.27
2018-06-12T15:19:34.860Z,100325.22
2018-06-12T15:22:04.200Z,100326.74
2018-06-12T15:24:33.444Z,100329.14
2018-06-12T15:27:01.752Z,100323.16
2018-06-12T15:29:30.874Z,100319.16
2018-06-12T15:32:00.196Z,100329.89
2018-06-12T15:34:29.366Z,100328.64
2018-06-12T15:36:57.684Z,100333.26
2018-06-12T15:39:26.907Z,100323.33
2018-06-12T15:41:56.133Z,100321.75
2018-06-12T15:44:25.377Z,100322.88
2018-06-12T15:46:54.488Z,100318.81
2018-06-12T15:49:23.833Z,100320.30
2018-06-12T15:51:53.182Z,100322.51
2018-06-12T15:54:22.372Z,100314.51
2018-06-12T15:56:50.730Z,100320.89
2018-06-12T15:59:19.057Z,100321.70
2018-06-12T16:01:47.445Z,100315.92
2018-06-12T16:04:15.859Z,100318.20
2018-06-12T16:06:44.216Z,100316.47
2018-06-12T16:09:12.533Z,100318.92
2018-06-12T16:11:41.073Z,100316.36
2018-06-12T16:14:09.397Z,100315.01
2018-06-12T16:16:37.724Z,100312.62
2018-06-12T16:19:06.045Z,100310.97
2018-06-12T16:21:34.358Z,100298.19
2018-06-12T16:24:03.565Z,100304.02
2018-06-12T16:26:31.868Z,100304.22
2018-06-12T16:29:00.184Z,100305.24
2018-06-12T16:31:28.623Z,100307.08
2018-06-12T16:33:56.988Z,100311.41
2018-06-12T16:36:25.294Z,100306.09
2018-06-12T16:38:54.480Z,100302.38
2018-06-12T16:41:22.846Z,100305.37
2018-06-12T16:43:52.016Z,100309.66
2018-06-12T16:46:20.335Z,100306.29
2018-06-12T16:48:49.648Z,100309.48
2018-06-12T16:51:17.956Z,100299.31
2018-06-12T16:53:47.184Z,100295.27
2018-06-12T16:56:15.500Z,100294.79
2018-06-12T16:58:43.808Z,100294.98
2018-06-12T17:01:12.185Z,100290.89
2018-06-12T17:03:40.545Z,100296.20
2018-06-12T17:06:08.857Z,100304.70
2018-06-12T17:08:37.188Z,100300.31
2018-06-12T17:11:05.580Z,100302.84
2018-06-12T17:13:34.933Z,100303.50
2018-06-12T17:16:03.258Z,100301.67
2018-06-12T17:18:31.577Z,100300.54
2018-06-12T17:20:59.904Z,100295.91
2018-06-12T17:23:28.267Z,100303.61
2018-06-12T17:25:56.695Z,100298.83
2018-06-12T17:28:25.021Z,100304.00
2018-06-12T17:30:53.349Z,100307.44
2018-06-12T17:33:21.818Z,100307.64
2018-06-12T17:35:50.188Z,100303.76
2018-06-12T17:38:19.533Z,100297.42
2018-06-12T17:40:47.888Z,100302.67
2018-06-12T17:43:16.241Z,100293.95
2018-06-12T17:45:45.638Z,100294.95
2018-06-12T17:48:14.047Z,100301.41
2018-06-12T17:50:42.405Z,100289.94
2018-06-12T17:53:11.489Z,100297.98
2018-06-12T17:55:40.752Z,100306.80
2018-06-12T17:58:12.385Z,100309.70
2018-06-12T18:00:41.067Z,100322.86
2018-06-12T18:03:10.397Z,100324.52
2018-06-12T18:05:39.167Z,100317.98
2018-06-12T18:08:09.519Z,100318.39
2018-06-12T18:10:39.101Z,100309.05
2018-06-12T18:13:07.866Z,100307.98
2018-06-12T18:15:36.803Z,100315.72
2018-06-12T18:18:06.452Z,100313.91
2018-06-12T18:20:37.342Z,100307.66
2018-06-12T18:23:07.216Z,100312.38
2018-06-12T18:25:35.619Z,100318.56
2018-06-12T18:28:04.053Z,100314.89
2018-06-12T18:36:28.438Z,100316.31
2018-06-12T18:38:56.957Z,100317.37
2018-06-12T18:41:25.344Z,100317.93
2018-06-12T18:43:53.980Z,100323.23
2018-06-12T18:46:23.268Z,100311.98
2018-06-12T18:48:52.290Z,100312.38
2018-06-12T18:51:20.982Z,100313.71
2018-06-12T18:53:50.578Z,100318.02
2018-06-12T18:56:19.530Z,100320.68
2018-06-12T18:58:47.983Z,100320.67
2018-06-12T19:04:19.058Z,100319.68
2018-06-12T19:06:47.527Z,100325.64
2018-06-12T19:09:16.582Z,100322.66
2018-06-12T19:14:36.838Z,100336.58
2018-06-12T19:17:05.269Z,100336.26
2018-06-12T19:19:33.777Z,100335.59
2018-06-12T19:22:02.105Z,100340.19
2018-06-12T19:24:30.557Z,100344.17
2018-06-12T19:26:59.381Z,100344.98
2018-06-12T19:29:27.885Z,100345.47
2018-06-12T19:31:56.282Z,100355.69
2018-06-12T19:34:24.970Z,100357.67
2018-06-12T19:36:53.408Z,100360.27
2018-06-12T19:39:21.841Z,100362.87
2018-06-12T19:41:50.216Z,100357.64
2018-06-12T19:44:18.681Z,100360.28
2018-06-12T19:46:48.130Z,100363.27
2018-06-12T19:49:16.787Z,100370.22
2018-06-12T19:51:45.129Z,100372.20
2018-06-12T19:54:14.260Z,100367.58
2018-06-12T19:56:42.960Z,100363.62
2018-06-12T19:59:11.301Z,100365.95
2018-06-12T20:01:39.641Z,100362.95
2018-06-12T20:04:08.072Z,100363.27
2018-06-12T20:06:36.398Z,100365.83
2018-06-12T20:09:07.303Z,100367.61
2018-06-12T20:11:35.864Z,100377.27
2018-06-12T20:14:04.337Z,100386.61
2018-06-12T20:16:32.764Z,100392.34
2018-06-12T20:19:01.094Z,100392.57
2018-06-12T20:21:29.493Z,100392.23
2018-06-12T20:23:57.859Z,100398.78
2018-06-12T20:26:26.786Z,100409.50
2018-06-12T20:28:55.160Z,100404.39
2018-06-12T20:31:23.536Z,100413.80
2018-06-12T20:33:51.953Z,100412.83
2018-06-12T20:36:20.302Z,100416.32
2018-06-12T20:38:48.677Z,100422.97
2018-06-12T20:41:16.990Z,100430.44
2018-06-12T20:43:45.313Z,100435.27
2018-06-12T20:46:13.862Z,100434.55
2018-06-12T20:48:42.301Z,100440.37
2018-06-12T20:51:10.732Z,100443.75
2018-06-12T20:53:39.110Z,100434.61
2018-06-12T20:56:07.594Z,100431.50
2018-06-12T20:58:35.929Z,100432.09
2018-06-12T21:01:04.301Z,100426.37
2018-06-12T21:03:32.676Z,100435.00
2018-06-12T21:06:01.208Z,100428.66
2018-06-12T21:08:29.809Z,100430.65
2018-06-12T21:10:58.181Z,100436.19
2018-06-12T21:13:29.125Z,100423.07
2018-06-12T21:15:57.545Z,100429.23
2018-06-12T21:18:37.521Z,100429.86
2018-06-12T21:21:05.924Z,100429.70
2018-06-12T21:23:34.295Z,100421.58
2018-06-12T21:26:02.605Z,100411.48
2018-06-12T21:28:30.988Z,100413.50
2018-06-12T21:30:59.485Z,100415.28
2018-06-12T21:33:28.837Z,100417.91
2018-06-12T21:35:57.288Z,100426.19
2018-06-12T21:38:25.649Z,100422.61
2018-06-12T21:40:54.101Z,100428.39
2018-06-12T21:43:22.408Z,100425.36
2018-06-12T21:45:50.744Z,100420.25
2018-06-12T21:48:19.210Z,100430.83
2018-06-12T21:50:47.640Z,100423.84
2018-06-12T21:53:15.961Z,100426.25
2018-06-12T21:55:44.317Z,100421.48
2018-06-12T21:58:12.670Z,100428.40
2018-06-12T22:00:41.595Z,100421.59
2018-06-12T22:03:10.179Z,100422.47
2018-06-12T22:05:38.640Z,100420.81
2018-06-12T22:08:07.084Z,100427.06
2018-06-12T22:10:35.405Z,100429.05
2018-06-12T22:13:03.806Z,100428.69
2018-06-12T22:15:32.281Z,100426.30
2018-06-12T22:18:00.739Z,100429.16
2018-06-12T22:20:29.060Z,100436.67
2018-06-12T22:22:57.417Z,100448.52
2018-06-12T22:25:25.794Z,100457.20
2018-06-12T22:27:54.181Z,100454.86
2018-06-12T22:30:22.513Z,100450.55
2018-06-12T22:32:50.857Z,100447.84
2018-06-12T22:35:19.193Z,100439.77
2018-06-12T22:37:47.549Z,100441.44
2018-06-12T22:40:15.868Z,100438.73
2018-06-12T22:42:44.193Z,100443.34
2018-06-12T22:45:12.664Z,100445.81
2018-06-12T22:47:40.981Z,100446.09
2018-06-12T22:50:09.289Z,100449.42
2018-06-12T22:52:37.668Z,100451.74
2018-06-12T22:55:06.096Z,100457.98
2018-06-12T22:57:34.425Z,100455.60
2018-06-12T23:00:02.894Z,100455.23
2018-06-12T23:02:31.227Z,100454.86
2018-06-12T23:05:04.702Z,100452.11
2018-06-12T23:07:33.025Z,100450.28
2018-06-12T23:10:01.346Z,100447.64
2018-06-12T23:12:29.730Z,100454.86
2018-06-12T23:14:58.126Z,100458.14
2018-06-12T23:17:26.495Z,100451.50
2018-06-12T23:21:08.125Z,100446.25
2018-06-12T23:23:36.569Z,100449.23
2018-06-12T23:26:04.888Z,100448.41
2018-06-12T23:28:33.313Z,100445.55
2018-06-12T23:31:01.625Z,100450.16
2018-06-12T23:33:29.945Z,100448.48
2018-06-12T23:35:58.361Z,100445.68
2018-06-12T23:38:26.677Z,100446.22
2018-06-12T23:40:55.023Z,100445.55
2018-06-12T23:43:23.340Z,100432.01
2018-06-12T23:45:51.668Z,100433.33
2018-06-12T23:48:20.013Z,100432.34
2018-06-12T23:50:48.945Z,100433.33
2018-06-12T23:53:17.261Z,100435.00
2018-06-12T23:55:45.573Z,100432.17
2018-06-12T23:58:13.912Z,100434.59
